sensor_id;sensor_type;location;lat;lon;timestamp;temperature;humidity
57892;DHT22;43708;48.828;9.166;2023-03-07T00:02:16;19.50;60.00
57892;DHT22;43708;48.828;9.166;2023-03-07T00:04:45;19.50;60.00
57892;DHT22;43708;48.828;9.166;2023-03-07T00:07:12;19.40;59.90
57892;DHT22;43708;48.828;9.166;2023-03-07T00:09:37;19.50;60.00
57892;DHT22;43708;48.828;9.166;2023-03-07T00:12:03;19.50;60.00
57892;DHT22;43708;48.828;9.166;2023-03-07T00:14:30;19.50;59.90
57892;DHT22;43708;48.828;9.166;2023-03-07T00:16:57;19.50;59.90
57892;DHT22;43708;48.828;9.166;2023-03-07T00:19:22;19.50;59.80
57892;DHT22;43708;48.828;9.166;2023-03-07T00:21:48;19.50;59.70
57892;DHT22;43708;48.828;9.166;2023-03-07T00:24:13;19.50;59.70
57892;DHT22;43708;48.828;9.166;2023-03-07T00:26:39;19.60;59.60
57892;DHT22;43708;48.828;9.166;2023-03-07T00:29:09;19.70;59.50
57892;DHT22;43708;48.828;9.166;2023-03-07T00:31:35;19.70;59.40
57892;DHT22;43708;48.828;9.166;2023-03-07T00:34:02;19.80;60.00
57892;DHT22;43708;48.828;9.166;2023-03-07T00:36:27;19.80;59.30
57892;DHT22;43708;48.828;9.166;2023-03-07T00:38:53;19.80;59.20
57892;DHT22;43708;48.828;9.166;2023-03-07T00:41:24;19.80;59.10
57892;DHT22;43708;48.828;9.166;2023-03-07T00:43:50;19.80;59.10
57892;DHT22;43708;48.828;9.166;2023-03-07T00:46:17;19.90;59.00
57892;DHT22;43708;48.828;9.166;2023-03-07T00:48:43;19.90;58.90
57892;DHT22;43708;48.828;9.166;2023-03-07T00:51:12;19.90;58.90
57892;DHT22;43708;48.828;9.166;2023-03-07T00:53:39;20.00;58.90
57892;DHT22;43708;48.828;9.166;2023-03-07T00:56:07;20.00;58.90
57892;DHT22;43708;48.828;9.166;2023-03-07T00:58:36;19.90;58.80
57892;DHT22;43708;48.828;9.166;2023-03-07T01:01:05;20.00;58.80
57892;DHT22;43708;48.828;9.166;2023-03-07T01:03:32;19.90;58.70
57892;DHT22;43708;48.828;9.166;2023-03-07T01:06:04;20.00;58.80
57892;DHT22;43708;48.828;9.166;2023-03-07T01:08:31;20.00;58.70
57892;DHT22;43708;48.828;9.166;2023-03-07T01:10:58;20.00;58.70
57892;DHT22;43708;48.828;9.166;2023-03-07T01:13:25;20.10;58.70
57892;DHT22;43708;48.828;9.166;2023-03-07T01:15:50;20.00;58.70
57892;DHT22;43708;48.828;9.166;2023-03-07T01:18:16;20.00;59.30
57892;DHT22;43708;48.828;9.166;2023-03-07T01:20:42;19.90;58.60
57892;DHT22;43708;48.828;9.166;2023-03-07T01:23:07;20.00;58.60
57892;DHT22;43708;48.828;9.166;2023-03-07T01:25:40;20.00;58.60
57892;DHT22;43708;48.828;9.166;2023-03-07T01:28:08;20.00;58.60
57892;DHT22;43708;48.828;9.166;2023-03-07T01:30:33;20.00;58.60
57892;DHT22;43708;48.828;9.166;2023-03-07T01:33:00;20.00;58.60
57892;DHT22;43708;48.828;9.166;2023-03-07T01:35:26;20.00;58.60
57892;DHT22;43708;48.828;9.166;2023-03-07T01:37:53;20.00;58.60
57892;DHT22;43708;48.828;9.166;2023-03-07T01:40:20;20.00;58.60
57892;DHT22;43708;48.828;9.166;2023-03-07T01:42:46;20.00;58.60
57892;DHT22;43708;48.828;9.166;2023-03-07T01:47:37;20.00;58.60
57892;DHT22;43708;48.828;9.166;2023-03-07T01:50:08;19.90;58.50
57892;DHT22;43708;48.828;9.166;2023-03-07T01:52:39;20.00;58.60
57892;DHT22;43708;48.828;9.166;2023-03-07T01:55:18;19.90;58.50
57892;DHT22;43708;48.828;9.166;2023-03-07T01:57:49;20.00;58.60
57892;DHT22;43708;48.828;9.166;2023-03-07T02:00:19;19.90;58.50
57892;DHT22;43708;48.828;9.166;2023-03-07T02:05:43;19.90;58.40
57892;DHT22;43708;48.828;9.166;2023-03-07T02:08:11;19.90;58.40
57892;DHT22;43708;48.828;9.166;2023-03-07T02:10:39;19.90;59.00
57892;DHT22;43708;48.828;9.166;2023-03-07T02:13:05;19.90;58.40
57892;DHT22;43708;48.828;9.166;2023-03-07T02:15:33;19.90;58.40
57892;DHT22;43708;48.828;9.166;2023-03-07T02:18:01;19.90;58.40
57892;DHT22;43708;48.828;9.166;2023-03-07T02:20:41;19.90;58.40
57892;DHT22;43708;48.828;9.166;2023-03-07T02:26:23;19.90;58.40
57892;DHT22;43708;48.828;9.166;2023-03-07T02:28:51;19.90;58.40
57892;DHT22;43708;48.828;9.166;2023-03-07T02:31:17;19.80;58.40
57892;DHT22;43708;48.828;9.166;2023-03-07T02:33:43;19.80;58.50
57892;DHT22;43708;48.828;9.166;2023-03-07T02:36:12;19.80;58.50
57892;DHT22;43708;48.828;9.166;2023-03-07T02:38:41;19.80;58.60
57892;DHT22;43708;48.828;9.166;2023-03-07T02:41:09;19.70;58.50
57892;DHT22;43708;48.828;9.166;2023-03-07T02:43:35;19.70;58.60
57892;DHT22;43708;48.828;9.166;2023-03-07T02:46:01;19.70;58.60
57892;DHT22;43708;48.828;9.166;2023-03-07T02:48:26;19.70;58.60
57892;DHT22;43708;48.828;9.166;2023-03-07T02:50:52;19.60;58.60
57892;DHT22;43708;48.828;9.166;2023-03-07T02:53:17;19.60;58.60
57892;DHT22;43708;48.828;9.166;2023-03-07T02:55:43;19.60;58.70
57892;DHT22;43708;48.828;9.166;2023-03-07T02:58:09;19.60;58.70
57892;DHT22;43708;48.828;9.166;2023-03-07T03:00:34;19.60;58.70
57892;DHT22;43708;48.828;9.166;2023-03-07T03:03:01;19.60;58.70
57892;DHT22;43708;48.828;9.166;2023-03-07T03:05:26;19.60;58.70
57892;DHT22;43708;48.828;9.166;2023-03-07T03:07:52;19.60;58.70
57892;DHT22;43708;48.828;9.166;2023-03-07T03:10:18;19.60;58.70
57892;DHT22;43708;48.828;9.166;2023-03-07T03:12:43;19.60;58.60
57892;DHT22;43708;48.828;9.166;2023-03-07T03:15:10;19.80;59.30
57892;DHT22;43708;48.828;9.166;2023-03-07T03:17:36;19.70;58.60
57892;DHT22;43708;48.828;9.166;2023-03-07T03:20:01;19.70;58.50
57892;DHT22;43708;48.828;9.166;2023-03-07T03:22:32;19.70;58.40
57892;DHT22;43708;48.828;9.166;2023-03-07T03:24:57;19.80;58.40
57892;DHT22;43708;48.828;9.166;2023-03-07T03:27:23;19.80;58.40
57892;DHT22;43708;48.828;9.166;2023-03-07T03:29:49;19.80;58.30
57892;DHT22;43708;48.828;9.166;2023-03-07T03:32:15;19.80;58.30
57892;DHT22;43708;48.828;9.166;2023-03-07T03:34:42;19.80;58.80
57892;DHT22;43708;48.828;9.166;2023-03-07T03:37:08;19.80;58.10
57892;DHT22;43708;48.828;9.166;2023-03-07T03:39:35;19.90;58.10
57892;DHT22;43708;48.828;9.166;2023-03-07T03:42:00;20.00;58.10
57892;DHT22;43708;48.828;9.166;2023-03-07T03:44:26;20.00;58.10
57892;DHT22;43708;48.828;9.166;2023-03-07T03:46:51;20.00;58.00
57892;DHT22;43708;48.828;9.166;2023-03-07T03:49:17;20.00;57.90
57892;DHT22;43708;48.828;9.166;2023-03-07T03:51:43;20.00;57.90
57892;DHT22;43708;48.828;9.166;2023-03-07T03:54:09;20.10;57.90
57892;DHT22;43708;48.828;9.166;2023-03-07T03:56:35;20.10;57.80
57892;DHT22;43708;48.828;9.166;2023-03-07T03:59:00;20.10;57.80
57892;DHT22;43708;48.828;9.166;2023-03-07T04:01:27;20.10;57.80
57892;DHT22;43708;48.828;9.166;2023-03-07T04:03:53;20.00;57.80
57892;DHT22;43708;48.828;9.166;2023-03-07T04:06:22;20.10;57.80
57892;DHT22;43708;48.828;9.166;2023-03-07T04:08:49;20.10;57.90
57892;DHT22;43708;48.828;9.166;2023-03-07T04:11:16;20.00;57.80
57892;DHT22;43708;48.828;9.166;2023-03-07T04:13:41;20.00;57.90
57892;DHT22;43708;48.828;9.166;2023-03-07T04:16:08;20.00;57.90
57892;DHT22;43708;48.828;9.166;2023-03-07T04:18:35;20.00;58.00
57892;DHT22;43708;48.828;9.166;2023-03-07T04:21:02;20.00;58.00
57892;DHT22;43708;48.828;9.166;2023-03-07T04:23:28;20.00;58.00
57892;DHT22;43708;48.828;9.166;2023-03-07T04:25:56;20.00;58.10
57892;DHT22;43708;48.828;9.166;2023-03-07T04:28:27;20.00;58.10
57892;DHT22;43708;48.828;9.166;2023-03-07T04:30:53;19.90;58.10
57892;DHT22;43708;48.828;9.166;2023-03-07T04:33:19;19.90;58.10
57892;DHT22;43708;48.828;9.166;2023-03-07T04:35:45;19.90;58.10
57892;DHT22;43708;48.828;9.166;2023-03-07T04:38:11;19.90;58.20
57892;DHT22;43708;48.828;9.166;2023-03-07T04:40:37;19.90;58.20
57892;DHT22;43708;48.828;9.166;2023-03-07T04:43:04;19.80;58.20
57892;DHT22;43708;48.828;9.166;2023-03-07T04:45:33;19.80;58.20
57892;DHT22;43708;48.828;9.166;2023-03-07T04:48:00;19.80;58.20
57892;DHT22;43708;48.828;9.166;2023-03-07T04:50:25;19.80;58.30
57892;DHT22;43708;48.828;9.166;2023-03-07T04:52:51;19.80;58.30
57892;DHT22;43708;48.828;9.166;2023-03-07T04:55:17;19.80;58.30
57892;DHT22;43708;48.828;9.166;2023-03-07T04:57:42;19.80;58.30
57892;DHT22;43708;48.828;9.166;2023-03-07T05:00:08;19.80;58.20
57892;DHT22;43708;48.828;9.166;2023-03-07T05:02:35;19.80;58.20
57892;DHT22;43708;48.828;9.166;2023-03-07T05:05:01;19.80;58.20
57892;DHT22;43708;48.828;9.166;2023-03-07T05:07:27;19.80;58.20
57892;DHT22;43708;48.828;9.166;2023-03-07T05:09:55;19.80;58.20
57892;DHT22;43708;48.828;9.166;2023-03-07T05:12:22;19.80;58.20
57892;DHT22;43708;48.828;9.166;2023-03-07T05:14:48;19.80;58.10
57892;DHT22;43708;48.828;9.166;2023-03-07T05:17:13;19.90;58.10
57892;DHT22;43708;48.828;9.166;2023-03-07T05:19:40;19.80;58.10
57892;DHT22;43708;48.828;9.166;2023-03-07T05:22:05;19.90;58.10
57892;DHT22;43708;48.828;9.166;2023-03-07T05:24:32;19.90;58.10
57892;DHT22;43708;48.828;9.166;2023-03-07T05:26:57;19.90;58.00
57892;DHT22;43708;48.828;9.166;2023-03-07T05:29:23;19.90;58.00
57892;DHT22;43708;48.828;9.166;2023-03-07T05:31:49;19.90;58.00
57892;DHT22;43708;48.828;9.166;2023-03-07T05:34:14;20.00;58.00
57892;DHT22;43708;48.828;9.166;2023-03-07T05:36:40;19.90;58.00
57892;DHT22;43708;48.828;9.166;2023-03-07T05:39:06;19.90;57.90
57892;DHT22;43708;48.828;9.166;2023-03-07T05:41:31;19.90;57.90
57892;DHT22;43708;48.828;9.166;2023-03-07T05:43:57;19.90;57.90
57892;DHT22;43708;48.828;9.166;2023-03-07T05:46:23;19.90;57.90
57892;DHT22;43708;48.828;9.166;2023-03-07T05:48:50;20.00;58.00
57892;DHT22;43708;48.828;9.166;2023-03-07T05:51:15;19.90;57.90
57892;DHT22;43708;48.828;9.166;2023-03-07T05:53:41;19.90;57.90
57892;DHT22;43708;48.828;9.166;2023-03-07T05:56:07;19.90;57.90
57892;DHT22;43708;48.828;9.166;2023-03-07T05:58:33;19.90;58.00
57892;DHT22;43708;48.828;9.166;2023-03-07T06:01:01;19.90;58.00
57892;DHT22;43708;48.828;9.166;2023-03-07T06:03:27;19.80;58.00
57892;DHT22;43708;48.828;9.166;2023-03-07T06:05:53;19.90;58.10
57892;DHT22;43708;48.828;9.166;2023-03-07T06:08:18;19.90;58.10
57892;DHT22;43708;48.828;9.166;2023-03-07T06:10:48;19.90;58.10
57892;DHT22;43708;48.828;9.166;2023-03-07T06:13:24;19.90;58.10
57892;DHT22;43708;48.828;9.166;2023-03-07T06:15:59;19.90;58.20
57892;DHT22;43708;48.828;9.166;2023-03-07T06:18:33;19.90;58.10
57892;DHT22;43708;48.828;9.166;2023-03-07T06:21:04;19.90;58.20
57892;DHT22;43708;48.828;9.166;2023-03-07T06:23:31;19.90;58.20
57892;DHT22;43708;48.828;9.166;2023-03-07T06:25:58;19.90;58.20
57892;DHT22;43708;48.828;9.166;2023-03-07T06:28:23;19.80;58.20
57892;DHT22;43708;48.828;9.166;2023-03-07T06:30:50;19.80;58.20
57892;DHT22;43708;48.828;9.166;2023-03-07T06:33:16;19.80;58.40
57892;DHT22;43708;48.828;9.166;2023-03-07T06:35:43;19.80;58.40
57892;DHT22;43708;48.828;9.166;2023-03-07T06:38:10;19.80;58.50
57892;DHT22;43708;48.828;9.166;2023-03-07T06:40:36;19.80;58.60
57892;DHT22;43708;48.828;9.166;2023-03-07T06:43:02;19.80;58.60
57892;DHT22;43708;48.828;9.166;2023-03-07T06:45:27;19.80;58.70
57892;DHT22;43708;48.828;9.166;2023-03-07T06:47:53;19.80;58.70
57892;DHT22;43708;48.828;9.166;2023-03-07T06:50:19;19.70;58.70
57892;DHT22;43708;48.828;9.166;2023-03-07T06:52:45;19.80;58.80
57892;DHT22;43708;48.828;9.166;2023-03-07T06:55:11;19.80;58.80
57892;DHT22;43708;48.828;9.166;2023-03-07T06:57:36;19.80;58.70
57892;DHT22;43708;48.828;9.166;2023-03-07T07:00:04;19.70;58.60
57892;DHT22;43708;48.828;9.166;2023-03-07T07:02:32;19.80;58.60
57892;DHT22;43708;48.828;9.166;2023-03-07T07:04:57;19.80;58.60
57892;DHT22;43708;48.828;9.166;2023-03-07T07:07:24;19.80;58.50
57892;DHT22;43708;48.828;9.166;2023-03-07T07:09:51;19.80;58.50
57892;DHT22;43708;48.828;9.166;2023-03-07T07:12:18;19.90;58.50
57892;DHT22;43708;48.828;9.166;2023-03-07T07:14:43;19.90;58.50
57892;DHT22;43708;48.828;9.166;2023-03-07T07:17:09;19.90;58.40
57892;DHT22;43708;48.828;9.166;2023-03-07T07:19:35;19.90;58.40
57892;DHT22;43708;48.828;9.166;2023-03-07T07:22:01;19.90;58.40
57892;DHT22;43708;48.828;9.166;2023-03-07T07:24:27;19.90;58.40
57892;DHT22;43708;48.828;9.166;2023-03-07T07:26:52;19.90;58.30
57892;DHT22;43708;48.828;9.166;2023-03-07T07:29:18;20.00;58.40
57892;DHT22;43708;48.828;9.166;2023-03-07T07:31:43;19.90;58.30
57892;DHT22;43708;48.828;9.166;2023-03-07T07:34:09;19.90;58.30
57892;DHT22;43708;48.828;9.166;2023-03-07T07:36:35;20.00;58.40
57892;DHT22;43708;48.828;9.166;2023-03-07T07:39:04;19.90;58.30
57892;DHT22;43708;48.828;9.166;2023-03-07T07:41:31;19.90;58.30
57892;DHT22;43708;48.828;9.166;2023-03-07T07:43:57;19.90;58.30
57892;DHT22;43708;48.828;9.166;2023-03-07T07:46:22;19.90;58.30
57892;DHT22;43708;48.828;9.166;2023-03-07T07:48:48;19.90;58.40
57892;DHT22;43708;48.828;9.166;2023-03-07T07:51:14;19.90;58.40
57892;DHT22;43708;48.828;9.166;2023-03-07T07:53:39;19.90;58.40
57892;DHT22;43708;48.828;9.166;2023-03-07T07:56:05;19.90;58.40
57892;DHT22;43708;48.828;9.166;2023-03-07T07:58:32;19.80;58.40
57892;DHT22;43708;48.828;9.166;2023-03-07T08:00:57;19.80;58.40
57892;DHT22;43708;48.828;9.166;2023-03-07T08:03:25;19.80;58.40
57892;DHT22;43708;48.828;9.166;2023-03-07T08:05:52;19.80;58.50
57892;DHT22;43708;48.828;9.166;2023-03-07T08:08:18;19.80;59.10
57892;DHT22;43708;48.828;9.166;2023-03-07T08:10:47;19.70;58.40
57892;DHT22;43708;48.828;9.166;2023-03-07T08:13:14;19.80;58.40
57892;DHT22;43708;48.828;9.166;2023-03-07T08:15:41;19.90;58.40
57892;DHT22;43708;48.828;9.166;2023-03-07T08:18:07;19.80;58.40
57892;DHT22;43708;48.828;9.166;2023-03-07T08:20:32;19.80;58.40
57892;DHT22;43708;48.828;9.166;2023-03-07T08:22:58;19.90;58.40
57892;DHT22;43708;48.828;9.166;2023-03-07T08:25:24;19.80;58.20
57892;DHT22;43708;48.828;9.166;2023-03-07T08:27:51;19.90;58.30
57892;DHT22;43708;48.828;9.166;2023-03-07T08:30:25;19.90;58.20
57892;DHT22;43708;48.828;9.166;2023-03-07T08:32:53;19.90;58.20
57892;DHT22;43708;48.828;9.166;2023-03-07T08:35:19;19.90;58.10
57892;DHT22;43708;48.828;9.166;2023-03-07T08:37:46;19.90;58.10
57892;DHT22;43708;48.828;9.166;2023-03-07T08:40:13;20.00;58.10
57892;DHT22;43708;48.828;9.166;2023-03-07T08:42:40;20.00;58.10
57892;DHT22;43708;48.828;9.166;2023-03-07T08:45:06;20.00;58.10
57892;DHT22;43708;48.828;9.166;2023-03-07T08:47:32;20.00;58.00
57892;DHT22;43708;48.828;9.166;2023-03-07T08:49:58;20.00;58.00
57892;DHT22;43708;48.828;9.166;2023-03-07T08:52:23;20.00;58.00
57892;DHT22;43708;48.828;9.166;2023-03-07T08:54:49;20.00;58.00
57892;DHT22;43708;48.828;9.166;2023-03-07T08:57:15;20.00;58.00
57892;DHT22;43708;48.828;9.166;2023-03-07T08:59:40;20.00;58.00
57892;DHT22;43708;48.828;9.166;2023-03-07T09:02:08;20.10;58.00
57892;DHT22;43708;48.828;9.166;2023-03-07T09:04:34;20.10;58.00
57892;DHT22;43708;48.828;9.166;2023-03-07T09:06:59;20.00;58.00
57892;DHT22;43708;48.828;9.166;2023-03-07T09:09:27;20.00;58.00
57892;DHT22;43708;48.828;9.166;2023-03-07T09:11:53;20.00;57.90
57892;DHT22;43708;48.828;9.166;2023-03-07T09:14:18;20.10;58.00
57892;DHT22;43708;48.828;9.166;2023-03-07T09:16:44;20.10;58.00
57892;DHT22;43708;48.828;9.166;2023-03-07T09:19:10;20.10;58.00
57892;DHT22;43708;48.828;9.166;2023-03-07T09:21:35;20.10;58.00
57892;DHT22;43708;48.828;9.166;2023-03-07T09:24:01;20.00;57.90
57892;DHT22;43708;48.828;9.166;2023-03-07T09:26:26;20.00;57.90
57892;DHT22;43708;48.828;9.166;2023-03-07T09:28:53;20.00;57.90
57892;DHT22;43708;48.828;9.166;2023-03-07T09:31:19;20.10;57.90
57892;DHT22;43708;48.828;9.166;2023-03-07T09:33:44;20.00;57.90
57892;DHT22;43708;48.828;9.166;2023-03-07T09:36:11;20.00;57.80
57892;DHT22;43708;48.828;9.166;2023-03-07T09:38:38;20.00;57.80
57892;DHT22;43708;48.828;9.166;2023-03-07T09:44:13;20.10;57.80
57892;DHT22;43708;48.828;9.166;2023-03-07T09:49:17;20.10;57.80
57892;DHT22;43708;48.828;9.166;2023-03-07T09:51:45;20.10;57.80
57892;DHT22;43708;48.828;9.166;2023-03-07T09:54:17;20.10;57.80
57892;DHT22;43708;48.828;9.166;2023-03-07T09:56:56;20.00;57.80
57892;DHT22;43708;48.828;9.166;2023-03-07T09:59:33;20.10;57.80
57892;DHT22;43708;48.828;9.166;2023-03-07T10:04:55;20.00;57.80
57892;DHT22;43708;48.828;9.166;2023-03-07T10:07:24;20.00;57.90
57892;DHT22;43708;48.828;9.166;2023-03-07T10:09:56;20.00;57.90
57892;DHT22;43708;48.828;9.166;2023-03-07T10:15:29;20.00;57.90
57892;DHT22;43708;48.828;9.166;2023-03-07T10:21:11;20.00;57.80
57892;DHT22;43708;48.828;9.166;2023-03-07T10:26:36;19.90;57.70
57892;DHT22;43708;48.828;9.166;2023-03-07T10:29:23;20.00;57.80
57892;DHT22;43708;48.828;9.166;2023-03-07T10:32:20;20.00;57.80
57892;DHT22;43708;48.828;9.166;2023-03-07T10:34:44;20.00;57.80
57892;DHT22;43708;48.828;9.166;2023-03-07T10:37:19;20.00;57.80
57892;DHT22;43708;48.828;9.166;2023-03-07T10:39:56;20.00;57.80
57892;DHT22;43708;48.828;9.166;2023-03-07T10:42:27;19.90;57.80
57892;DHT22;43708;48.828;9.166;2023-03-07T10:44:56;19.90;57.80
57892;DHT22;43708;48.828;9.166;2023-03-07T10:47:26;19.90;57.80
57892;DHT22;43708;48.828;9.166;2023-03-07T10:49:56;19.90;57.90
57892;DHT22;43708;48.828;9.166;2023-03-07T10:58:28;19.90;57.90
57892;DHT22;43708;48.828;9.166;2023-03-07T11:03:59;19.80;57.90
57892;DHT22;43708;48.828;9.166;2023-03-07T11:06:33;19.80;57.90
57892;DHT22;43708;48.828;9.166;2023-03-07T11:09:23;19.90;57.90
57892;DHT22;43708;48.828;9.166;2023-03-07T11:14:27;20.10;57.60
57892;DHT22;43708;48.828;9.166;2023-03-07T11:17:00;20.30;57.40
57892;DHT22;43708;48.828;9.166;2023-03-07T11:19:37;20.50;57.00
57892;DHT22;43708;48.828;9.166;2023-03-07T11:22:26;20.80;56.60
57892;DHT22;43708;48.828;9.166;2023-03-07T11:24:59;21.00;56.20
57892;DHT22;43708;48.828;9.166;2023-03-07T11:30:17;21.40;55.50
57892;DHT22;43708;48.828;9.166;2023-03-07T11:32:52;21.60;55.30
57892;DHT22;43708;48.828;9.166;2023-03-07T11:41:10;22.00;53.60
57892;DHT22;43708;48.828;9.166;2023-03-07T11:43:45;21.90;53.00
57892;DHT22;43708;48.828;9.166;2023-03-07T11:46:51;21.80;52.30
57892;DHT22;43708;48.828;9.166;2023-03-07T11:54:55;21.90;51.80
57892;DHT22;43708;48.828;9.166;2023-03-07T12:00:19;22.30;51.30
57892;DHT22;43708;48.828;9.166;2023-03-07T12:05:49;22.50;51.40
57892;DHT22;43708;48.828;9.166;2023-03-07T12:11:32;22.50;51.20
57892;DHT22;43708;48.828;9.166;2023-03-07T12:17:26;22.60;50.80
57892;DHT22;43708;48.828;9.166;2023-03-07T12:20:19;22.70;50.60
57892;DHT22;43708;48.828;9.166;2023-03-07T12:25:34;22.90;50.30
57892;DHT22;43708;48.828;9.166;2023-03-07T12:28:32;23.00;50.30
57892;DHT22;43708;48.828;9.166;2023-03-07T12:31:23;23.00;50.30
57892;DHT22;43708;48.828;9.166;2023-03-07T12:39:18;22.90;50.50
57892;DHT22;43708;48.828;9.166;2023-03-07T12:45:08;22.80;50.80
57892;DHT22;43708;48.828;9.166;2023-03-07T12:50:17;22.80;50.90
57892;DHT22;43708;48.828;9.166;2023-03-07T12:52:51;22.90;50.90
57892;DHT22;43708;48.828;9.166;2023-03-07T12:55:56;22.90;50.90
57892;DHT22;43708;48.828;9.166;2023-03-07T13:01:24;22.90;51.00
57892;DHT22;43708;48.828;9.166;2023-03-07T13:03:55;22.90;51.00
57892;DHT22;43708;48.828;9.166;2023-03-07T13:06:23;22.90;51.00
57892;DHT22;43708;48.828;9.166;2023-03-07T13:08:52;22.90;51.10
57892;DHT22;43708;48.828;9.166;2023-03-07T13:11:24;22.90;51.20
57892;DHT22;43708;48.828;9.166;2023-03-07T13:13:57;22.80;51.20
57892;DHT22;43708;48.828;9.166;2023-03-07T13:24:53;22.80;52.10
57892;DHT22;43708;48.828;9.166;2023-03-07T13:27:23;22.80;52.40
57892;DHT22;43708;48.828;9.166;2023-03-07T13:38:01;22.60;54.30
57892;DHT22;43708;48.828;9.166;2023-03-07T13:51:05;22.50;54.90
57892;DHT22;43708;48.828;9.166;2023-03-07T13:53:45;22.50;54.90
57892;DHT22;43708;48.828;9.166;2023-03-07T13:58:47;22.50;55.00
57892;DHT22;43708;48.828;9.166;2023-03-07T14:04:11;22.50;55.30
57892;DHT22;43708;48.828;9.166;2023-03-07T14:07:12;22.50;55.50
57892;DHT22;43708;48.828;9.166;2023-03-07T14:09:58;22.40;55.70
57892;DHT22;43708;48.828;9.166;2023-03-07T14:26:17;22.40;56.60
57892;DHT22;43708;48.828;9.166;2023-03-07T14:29:02;22.30;56.80
57892;DHT22;43708;48.828;9.166;2023-03-07T14:31:37;22.30;57.00
57892;DHT22;43708;48.828;9.166;2023-03-07T14:34:29;22.30;57.10
57892;DHT22;43708;48.828;9.166;2023-03-07T14:37:13;22.20;57.20
57892;DHT22;43708;48.828;9.166;2023-03-07T14:40:13;22.20;57.40
57892;DHT22;43708;48.828;9.166;2023-03-07T14:45:39;22.00;57.60
57892;DHT22;43708;48.828;9.166;2023-03-07T14:51:10;21.90;57.70
57892;DHT22;43708;48.828;9.166;2023-03-07T14:53:37;21.90;57.80
57892;DHT22;43708;48.828;9.166;2023-03-07T14:56:06;21.80;57.80
57892;DHT22;43708;48.828;9.166;2023-03-07T14:58:34;21.80;57.80
57892;DHT22;43708;48.828;9.166;2023-03-07T15:01:13;21.80;57.90
57892;DHT22;43708;48.828;9.166;2023-03-07T15:03:52;21.80;58.00
57892;DHT22;43708;48.828;9.166;2023-03-07T15:06:20;21.80;58.00
57892;DHT22;43708;48.828;9.166;2023-03-07T15:08:47;21.70;58.00
57892;DHT22;43708;48.828;9.166;2023-03-07T15:13:58;21.60;58.10
57892;DHT22;43708;48.828;9.166;2023-03-07T15:16:30;21.60;58.10
57892;DHT22;43708;48.828;9.166;2023-03-07T15:19:18;21.60;58.10
57892;DHT22;43708;48.828;9.166;2023-03-07T15:21:52;21.60;58.10
57892;DHT22;43708;48.828;9.166;2023-03-07T15:24:23;21.60;58.20
57892;DHT22;43708;48.828;9.166;2023-03-07T15:26:51;21.60;58.20
57892;DHT22;43708;48.828;9.166;2023-03-07T15:29:23;21.70;58.00
57892;DHT22;43708;48.828;9.166;2023-03-07T15:34:31;22.00;57.40
57892;DHT22;43708;48.828;9.166;2023-03-07T15:37:19;22.10;57.10
57892;DHT22;43708;48.828;9.166;2023-03-07T15:42:33;22.30;56.80
57892;DHT22;43708;48.828;9.166;2023-03-07T15:45:41;22.30;56.70
57892;DHT22;43708;48.828;9.166;2023-03-07T15:48:33;22.30;56.60
57892;DHT22;43708;48.828;9.166;2023-03-07T15:51:01;22.30;56.60
57892;DHT22;43708;48.828;9.166;2023-03-07T15:53:33;22.40;56.60
57892;DHT22;43708;48.828;9.166;2023-03-07T15:56:22;22.40;56.50
57892;DHT22;43708;48.828;9.166;2023-03-07T15:58:53;22.30;56.40
57892;DHT22;43708;48.828;9.166;2023-03-07T16:01:25;22.20;56.20
57892;DHT22;43708;48.828;9.166;2023-03-07T16:03:53;22.00;56.10
57892;DHT22;43708;48.828;9.166;2023-03-07T16:06:41;21.90;56.10
57892;DHT22;43708;48.828;9.166;2023-03-07T16:09:11;21.80;55.90
57892;DHT22;43708;48.828;9.166;2023-03-07T16:11:38;21.80;55.80
57892;DHT22;43708;48.828;9.166;2023-03-07T16:14:05;21.80;55.50
57892;DHT22;43708;48.828;9.166;2023-03-07T16:16:34;21.80;55.50
57892;DHT22;43708;48.828;9.166;2023-03-07T16:18:59;21.90;55.50
57892;DHT22;43708;48.828;9.166;2023-03-07T16:21:25;21.80;55.20
57892;DHT22;43708;48.828;9.166;2023-03-07T16:23:51;21.80;55.20
57892;DHT22;43708;48.828;9.166;2023-03-07T16:26:22;21.80;55.10
57892;DHT22;43708;48.828;9.166;2023-03-07T16:28:49;21.80;54.70
57892;DHT22;43708;48.828;9.166;2023-03-07T16:31:16;21.90;54.50
57892;DHT22;43708;48.828;9.166;2023-03-07T16:33:43;22.00;54.30
57892;DHT22;43708;48.828;9.166;2023-03-07T16:36:10;22.20;54.20
57892;DHT22;43708;48.828;9.166;2023-03-07T16:38:36;22.30;53.90
57892;DHT22;43708;48.828;9.166;2023-03-07T16:41:02;22.40;53.80
57892;DHT22;43708;48.828;9.166;2023-03-07T16:43:33;22.40;53.70
57892;DHT22;43708;48.828;9.166;2023-03-07T16:46:02;22.40;53.60
57892;DHT22;43708;48.828;9.166;2023-03-07T16:48:28;22.50;53.60
57892;DHT22;43708;48.828;9.166;2023-03-07T16:50:54;22.50;53.50
57892;DHT22;43708;48.828;9.166;2023-03-07T16:53:20;22.50;53.40
57892;DHT22;43708;48.828;9.166;2023-03-07T16:55:46;22.50;53.40
57892;DHT22;43708;48.828;9.166;2023-03-07T16:58:32;22.50;53.40
57892;DHT22;43708;48.828;9.166;2023-03-07T17:00:58;22.50;53.40
57892;DHT22;43708;48.828;9.166;2023-03-07T17:03:25;22.50;53.40
57892;DHT22;43708;48.828;9.166;2023-03-07T17:05:51;22.50;53.50
57892;DHT22;43708;48.828;9.166;2023-03-07T17:08:16;22.50;53.50
57892;DHT22;43708;48.828;9.166;2023-03-07T17:10:42;22.50;53.60
57892;DHT22;43708;48.828;9.166;2023-03-07T17:13:11;22.50;53.60
57892;DHT22;43708;48.828;9.166;2023-03-07T17:15:41;22.50;53.60
57892;DHT22;43708;48.828;9.166;2023-03-07T17:18:09;22.50;53.60
57892;DHT22;43708;48.828;9.166;2023-03-07T17:20:34;22.40;53.60
57892;DHT22;43708;48.828;9.166;2023-03-07T17:23:00;22.40;53.70
57892;DHT22;43708;48.828;9.166;2023-03-07T17:25:26;22.40;53.70
57892;DHT22;43708;48.828;9.166;2023-03-07T17:30:21;22.40;53.70
57892;DHT22;43708;48.828;9.166;2023-03-07T17:32:47;22.40;53.80
57892;DHT22;43708;48.828;9.166;2023-03-07T17:35:13;22.40;53.80
57892;DHT22;43708;48.828;9.166;2023-03-07T17:37:40;22.40;53.80
57892;DHT22;43708;48.828;9.166;2023-03-07T17:40:06;22.50;53.70
57892;DHT22;43708;48.828;9.166;2023-03-07T17:42:39;22.60;53.70
57892;DHT22;43708;48.828;9.166;2023-03-07T17:45:06;22.60;53.60
57892;DHT22;43708;48.828;9.166;2023-03-07T17:47:32;22.70;53.50
57892;DHT22;43708;48.828;9.166;2023-03-07T17:50:00;22.70;53.50
57892;DHT22;43708;48.828;9.166;2023-03-07T17:52:26;22.70;53.40
57892;DHT22;43708;48.828;9.166;2023-03-07T17:54:51;22.70;53.40
57892;DHT22;43708;48.828;9.166;2023-03-07T17:57:17;22.70;53.40
57892;DHT22;43708;48.828;9.166;2023-03-07T17:59:45;22.70;53.50
57892;DHT22;43708;48.828;9.166;2023-03-07T18:02:12;22.60;53.50
57892;DHT22;43708;48.828;9.166;2023-03-07T18:04:38;22.60;53.60
57892;DHT22;43708;48.828;9.166;2023-03-07T18:07:04;22.60;53.60